sensor_id;sensor_type;location;lat;lon;timestamp;P1;durP1;ratioP1;P2;durP2;ratioP2
8399;SDS011;4237;47.030;15.396;2023-03-31T00:02:27;12.27;;;7.17;;
8399;SDS011;4237;47.030;15.396;2023-03-31T00:04:56;9.80;;;7.20;;
8399;SDS011;4237;47.030;15.396;2023-03-31T00:07:26;14.20;;;7.57;;
8399;SDS011;4237;47.030;15.396;2023-03-31T00:09:54;12.70;;;7.83;;
8399;SDS011;4237;47.030;15.396;2023-03-31T00:12:24;14.40;;;7.90;;
8399;SDS011;4237;47.030;15.396;2023-03-31T00:14:52;11.37;;;7.83;;
8399;SDS011;4237;47.030;15.396;2023-03-31T00:17:20;13.93;;;6.93;;
8399;SDS011;4237;47.030;15.396;2023-03-31T00:19:48;14.43;;;7.27;;
8399;SDS011;4237;47.030;15.396;2023-03-31T00:22:17;12.90;;;7.87;;
8399;SDS011;4237;47.030;15.396;2023-03-31T00:24:47;12.13;;;7.63;;
8399;SDS011;4237;47.030;15.396;2023-03-31T00:27:15;13.60;;;7.57;;
8399;SDS011;4237;47.030;15.396;2023-03-31T00:29:43;12.23;;;7.83;;
8399;SDS011;4237;47.030;15.396;2023-03-31T00:32:11;11.80;;;7.77;;
8399;SDS011;4237;47.030;15.396;2023-03-31T00:34:40;13.83;;;7.87;;
8399;SDS011;4237;47.030;15.396;2023-03-31T00:37:10;13.77;;;7.53;;
8399;SDS011;4237;47.030;15.396;2023-03-31T00:39:40;8.90;;;6.07;;
8399;SDS011;4237;47.030;15.396;2023-03-31T00:42:10;13.20;;;5.87;;
8399;SDS011;4237;47.030;15.396;2023-03-31T00:47:27;12.97;;;7.43;;
8399;SDS011;4237;47.030;15.396;2023-03-31T00:49:56;10.53;;;7.17;;
8399;SDS011;4237;47.030;15.396;2023-03-31T00:52:27;10.40;;;6.87;;
8399;SDS011;4237;47.030;15.396;2023-03-31T00:54:59;10.50;;;6.70;;
8399;SDS011;4237;47.030;15.396;2023-03-31T00:57:27;11.93;;;6.57;;
8399;SDS011;4237;47.030;15.396;2023-03-31T01:00:00;9.10;;;6.23;;
8399;SDS011;4237;47.030;15.396;2023-03-31T01:02:29;7.40;;;5.57;;
8399;SDS011;4237;47.030;15.396;2023-03-31T01:04:58;8.10;;;5.60;;
8399;SDS011;4237;47.030;15.396;2023-03-31T01:07:34;7.03;;;5.07;;
8399;SDS011;4237;47.030;15.396;2023-03-31T01:10:20;10.43;;;5.83;;
8399;SDS011;4237;47.030;15.396;2023-03-31T01:12:50;9.30;;;5.67;;
8399;SDS011;4237;47.030;15.396;2023-03-31T01:15:19;7.80;;;5.07;;
8399;SDS011;4237;47.030;15.396;2023-03-31T01:17:47;7.43;;;6.07;;
8399;SDS011;4237;47.030;15.396;2023-03-31T01:31:06;6.60;;;5.33;;
8399;SDS011;4237;47.030;15.396;2023-03-31T01:36:33;8.60;;;5.20;;
8399;SDS011;4237;47.030;15.396;2023-03-31T01:39:06;9.87;;;5.70;;
8399;SDS011;4237;47.030;15.396;2023-03-31T01:44:32;8.37;;;5.33;;
8399;SDS011;4237;47.030;15.396;2023-03-31T01:47:09;8.17;;;4.73;;
8399;SDS011;4237;47.030;15.396;2023-03-31T01:49:57;7.43;;;6.03;;
8399;SDS011;4237;47.030;15.396;2023-03-31T01:52:43;8.57;;;7.00;;
8399;SDS011;4237;47.030;15.396;2023-03-31T01:55:21;7.83;;;5.90;;
8399;SDS011;4237;47.030;15.396;2023-03-31T01:57:52;8.17;;;5.50;;
8399;SDS011;4237;47.030;15.396;2023-03-31T02:00:29;9.10;;;5.83;;
8399;SDS011;4237;47.030;15.396;2023-03-31T02:03:13;6.87;;;5.00;;
8399;SDS011;4237;47.030;15.396;2023-03-31T02:05:37;9.53;;;5.90;;
8399;SDS011;4237;47.030;15.396;2023-03-31T02:08:13;9.53;;;5.30;;
8399;SDS011;4237;47.030;15.396;2023-03-31T02:10:42;8.70;;;5.97;;
8399;SDS011;4237;47.030;15.396;2023-03-31T02:13:12;8.40;;;5.90;;
8399;SDS011;4237;47.030;15.396;2023-03-31T02:15:42;7.17;;;5.67;;
8399;SDS011;4237;47.030;15.396;2023-03-31T02:18:12;10.83;;;5.63;;
8399;SDS011;4237;47.030;15.396;2023-03-31T02:20:43;9.00;;;5.53;;
8399;SDS011;4237;47.030;15.396;2023-03-31T02:23:13;10.27;;;4.93;;
8399;SDS011;4237;47.030;15.396;2023-03-31T02:25:47;6.73;;;4.40;;
8399;SDS011;4237;47.030;15.396;2023-03-31T02:28:17;6.73;;;5.10;;
8399;SDS011;4237;47.030;15.396;2023-03-31T02:30:46;9.63;;;5.50;;
8399;SDS011;4237;47.030;15.396;2023-03-31T02:33:14;9.83;;;5.87;;
8399;SDS011;4237;47.030;15.396;2023-03-31T02:35:43;7.83;;;6.30;;
8399;SDS011;4237;47.030;15.396;2023-03-31T02:38:12;8.60;;;5.40;;
8399;SDS011;4237;47.030;15.396;2023-03-31T02:40:40;10.03;;;5.27;;
8399;SDS011;4237;47.030;15.396;2023-03-31T02:43:08;8.33;;;5.47;;
8399;SDS011;4237;47.030;15.396;2023-03-31T02:45:47;9.07;;;5.60;;
8399;SDS011;4237;47.030;15.396;2023-03-31T02:48:20;7.43;;;5.57;;
8399;SDS011;4237;47.030;15.396;2023-03-31T02:56:17;9.93;;;6.43;;
8399;SDS011;4237;47.030;15.396;2023-03-31T02:58:48;6.80;;;5.63;;
8399;SDS011;4237;47.030;15.396;2023-03-31T03:01:19;9.10;;;6.07;;
8399;SDS011;4237;47.030;15.396;2023-03-31T03:06:44;7.77;;;5.70;;
8399;SDS011;4237;47.030;15.396;2023-03-31T03:17:12;7.70;;;6.00;;
8399;SDS011;4237;47.030;15.396;2023-03-31T03:19:41;11.47;;;6.10;;
8399;SDS011;4237;47.030;15.396;2023-03-31T03:22:09;9.63;;;6.43;;
8399;SDS011;4237;47.030;15.396;2023-03-31T03:24:37;9.33;;;6.47;;
8399;SDS011;4237;47.030;15.396;2023-03-31T03:27:06;10.17;;;6.90;;
8399;SDS011;4237;47.030;15.396;2023-03-31T03:29:34;8.13;;;6.13;;
8399;SDS011;4237;47.030;15.396;2023-03-31T03:32:02;8.90;;;6.23;;
8399;SDS011;4237;47.030;15.396;2023-03-31T03:34:30;9.87;;;6.27;;
8399;SDS011;4237;47.030;15.396;2023-03-31T03:36:59;6.57;;;5.43;;
8399;SDS011;4237;47.030;15.396;2023-03-31T03:39:27;6.87;;;5.50;;
8399;SDS011;4237;47.030;15.396;2023-03-31T03:41:55;8.53;;;5.20;;
8399;SDS011;4237;47.030;15.396;2023-03-31T03:44:23;12.67;;;6.00;;
8399;SDS011;4237;47.030;15.396;2023-03-31T03:46:51;9.57;;;6.53;;
8399;SDS011;4237;47.030;15.396;2023-03-31T03:49:20;8.60;;;5.97;;
8399;SDS011;4237;47.030;15.396;2023-03-31T03:51:48;8.27;;;5.43;;
8399;SDS011;4237;47.030;15.396;2023-03-31T03:54:16;5.67;;;4.63;;
8399;SDS011;4237;47.030;15.396;2023-03-31T03:56:45;12.33;;;5.40;;
8399;SDS011;4237;47.030;15.396;2023-03-31T03:59:13;7.73;;;5.37;;
8399;SDS011;4237;47.030;15.396;2023-03-31T04:01:41;9.70;;;4.90;;
8399;SDS011;4237;47.030;15.396;2023-03-31T04:04:10;7.83;;;4.70;;
8399;SDS011;4237;47.030;15.396;2023-03-31T04:06:38;6.43;;;5.40;;
8399;SDS011;4237;47.030;15.396;2023-03-31T04:09:06;14.73;;;6.90;;
8399;SDS011;4237;47.030;15.396;2023-03-31T04:11:35;10.77;;;5.87;;
8399;SDS011;4237;47.030;15.396;2023-03-31T04:14:03;10.93;;;6.80;;
8399;SDS011;4237;47.030;15.396;2023-03-31T04:16:31;8.53;;;6.40;;
8399;SDS011;4237;47.030;15.396;2023-03-31T04:19:00;8.37;;;6.27;;
8399;SDS011;4237;47.030;15.396;2023-03-31T04:21:30;8.90;;;7.00;;
8399;SDS011;4237;47.030;15.396;2023-03-31T04:24:02;11.30;;;7.00;;
8399;SDS011;4237;47.030;15.396;2023-03-31T04:26:33;8.13;;;6.37;;
8399;SDS011;4237;47.030;15.396;2023-03-31T04:29:12;11.83;;;7.13;;
8399;SDS011;4237;47.030;15.396;2023-03-31T04:31:40;8.87;;;6.33;;
8399;SDS011;4237;47.030;15.396;2023-03-31T04:34:09;12.70;;;7.23;;
8399;SDS011;4237;47.030;15.396;2023-03-31T04:36:40;9.63;;;7.13;;
8399;SDS011;4237;47.030;15.396;2023-03-31T04:39:10;8.53;;;6.10;;
8399;SDS011;4237;47.030;15.396;2023-03-31T04:41:38;11.03;;;7.17;;
8399;SDS011;4237;47.030;15.396;2023-03-31T04:44:07;9.60;;;6.33;;
8399;SDS011;4237;47.030;15.396;2023-03-31T04:46:36;10.07;;;6.83;;
8399;SDS011;4237;47.030;15.396;2023-03-31T04:49:04;10.67;;;8.10;;
8399;SDS011;4237;47.030;15.396;2023-03-31T04:51:32;10.67;;;7.53;;
8399;SDS011;4237;47.030;15.396;2023-03-31T04:54:01;12.67;;;7.17;;
8399;SDS011;4237;47.030;15.396;2023-03-31T04:56:29;8.90;;;6.80;;
8399;SDS011;4237;47.030;15.396;2023-03-31T04:58:57;8.37;;;6.73;;
8399;SDS011;4237;47.030;15.396;2023-03-31T05:01:25;8.77;;;6.83;;
8399;SDS011;4237;47.030;15.396;2023-03-31T05:03:53;8.93;;;6.97;;
8399;SDS011;4237;47.030;15.396;2023-03-31T05:06:22;9.97;;;7.23;;
8399;SDS011;4237;47.030;15.396;2023-03-31T05:08:50;13.50;;;7.27;;
8399;SDS011;4237;47.030;15.396;2023-03-31T05:11:18;9.87;;;7.17;;
8399;SDS011;4237;47.030;15.396;2023-03-31T05:13:47;10.53;;;7.13;;
8399;SDS011;4237;47.030;15.396;2023-03-31T05:16:15;11.37;;;7.00;;
8399;SDS011;4237;47.030;15.396;2023-03-31T05:18:44;14.60;;;7.33;;
8399;SDS011;4237;47.030;15.396;2023-03-31T05:21:15;11.20;;;7.10;;
8399;SDS011;4237;47.030;15.396;2023-03-31T05:23:43;12.07;;;7.13;;
8399;SDS011;4237;47.030;15.396;2023-03-31T05:26:12;10.00;;;7.13;;
8399;SDS011;4237;47.030;15.396;2023-03-31T05:28:41;11.30;;;7.30;;
8399;SDS011;4237;47.030;15.396;2023-03-31T05:31:09;12.07;;;7.30;;
8399;SDS011;4237;47.030;15.396;2023-03-31T05:33:39;11.97;;;6.57;;
8399;SDS011;4237;47.030;15.396;2023-03-31T05:36:08;10.83;;;7.83;;
8399;SDS011;4237;47.030;15.396;2023-03-31T05:38:37;12.03;;;7.30;;
8399;SDS011;4237;47.030;15.396;2023-03-31T05:41:07;9.30;;;6.87;;
8399;SDS011;4237;47.030;15.396;2023-03-31T05:43:36;7.87;;;6.87;;
8399;SDS011;4237;47.030;15.396;2023-03-31T05:46:05;12.77;;;6.40;;
8399;SDS011;4237;47.030;15.396;2023-03-31T05:48:33;12.27;;;7.30;;
8399;SDS011;4237;47.030;15.396;2023-03-31T05:51:03;15.90;;;8.90;;
8399;SDS011;4237;47.030;15.396;2023-03-31T05:53:32;16.87;;;10.07;;
8399;SDS011;4237;47.030;15.396;2023-03-31T05:56:01;19.03;;;11.00;;
8399;SDS011;4237;47.030;15.396;2023-03-31T05:58:29;21.30;;;11.37;;
8399;SDS011;4237;47.030;15.396;2023-03-31T06:01:01;31.17;;;10.77;;
8399;SDS011;4237;47.030;15.396;2023-03-31T06:03:32;16.90;;;10.90;;
8399;SDS011;4237;47.030;15.396;2023-03-31T06:06:01;16.47;;;9.80;;
8399;SDS011;4237;47.030;15.396;2023-03-31T06:08:31;16.90;;;9.50;;
8399;SDS011;4237;47.030;15.396;2023-03-31T06:10:59;11.17;;;7.97;;
8399;SDS011;4237;47.030;15.396;2023-03-31T06:13:29;16.17;;;9.33;;
8399;SDS011;4237;47.030;15.396;2023-03-31T06:15:58;14.73;;;9.13;;
8399;SDS011;4237;47.030;15.396;2023-03-31T06:18:28;13.97;;;8.70;;
8399;SDS011;4237;47.030;15.396;2023-03-31T06:20:56;14.23;;;8.47;;
8399;SDS011;4237;47.030;15.396;2023-03-31T06:23:24;13.07;;;7.97;;
8399;SDS011;4237;47.030;15.396;2023-03-31T06:25:53;18.53;;;9.70;;
8399;SDS011;4237;47.030;15.396;2023-03-31T06:28:23;19.20;;;9.17;;
8399;SDS011;4237;47.030;15.396;2023-03-31T06:30:58;15.50;;;9.70;;
8399;SDS011;4237;47.030;15.396;2023-03-31T06:33:21;16.83;;;8.93;;
8399;SDS011;4237;47.030;15.396;2023-03-31T06:35:49;14.10;;;8.87;;
8399;SDS011;4237;47.030;15.396;2023-03-31T06:38:18;18.43;;;8.53;;
8399;SDS011;4237;47.030;15.396;2023-03-31T06:40:46;11.67;;;8.60;;
8399;SDS011;4237;47.030;15.396;2023-03-31T06:43:14;14.37;;;8.30;;
8399;SDS011;4237;47.030;15.396;2023-03-31T06:45:42;13.80;;;7.87;;
8399;SDS011;4237;47.030;15.396;2023-03-31T06:48:10;12.10;;;7.10;;
8399;SDS011;4237;47.030;15.396;2023-03-31T06:50:39;21.83;;;7.60;;
8399;SDS011;4237;47.030;15.396;2023-03-31T06:53:08;12.00;;;7.10;;
8399;SDS011;4237;47.030;15.396;2023-03-31T06:55:36;10.83;;;6.77;;
8399;SDS011;4237;47.030;15.396;2023-03-31T06:58:05;13.73;;;7.03;;
8399;SDS011;4237;47.030;15.396;2023-03-31T07:00:33;8.43;;;6.30;;
8399;SDS011;4237;47.030;15.396;2023-03-31T07:03:02;11.30;;;6.13;;
8399;SDS011;4237;47.030;15.396;2023-03-31T07:05:30;8.33;;;6.83;;
8399;SDS011;4237;47.030;15.396;2023-03-31T07:07:58;13.77;;;6.60;;
8399;SDS011;4237;47.030;15.396;2023-03-31T07:10:28;10.63;;;6.87;;
8399;SDS011;4237;47.030;15.396;2023-03-31T07:12:57;17.80;;;7.60;;
8399;SDS011;4237;47.030;15.396;2023-03-31T07:15:25;15.20;;;6.83;;
8399;SDS011;4237;47.030;15.396;2023-03-31T07:17:55;12.37;;;6.93;;
8399;SDS011;4237;47.030;15.396;2023-03-31T07:20:25;12.00;;;6.40;;
8399;SDS011;4237;47.030;15.396;2023-03-31T07:22:53;9.47;;;6.60;;
8399;SDS011;4237;47.030;15.396;2023-03-31T07:25:21;12.23;;;6.27;;
8399;SDS011;4237;47.030;15.396;2023-03-31T07:27:50;17.13;;;7.13;;
8399;SDS011;4237;47.030;15.396;2023-03-31T07:30:18;16.90;;;7.07;;
8399;SDS011;4237;47.030;15.396;2023-03-31T07:32:52;15.17;;;6.83;;
8399;SDS011;4237;47.030;15.396;2023-03-31T07:35:17;15.20;;;6.10;;
8399;SDS011;4237;47.030;15.396;2023-03-31T07:37:46;17.87;;;6.40;;
8399;SDS011;4237;47.030;15.396;2023-03-31T07:40:21;15.93;;;6.37;;
8399;SDS011;4237;47.030;15.396;2023-03-31T07:42:44;10.70;;;6.27;;
8399;SDS011;4237;47.030;15.396;2023-03-31T07:45:15;10.27;;;6.00;;
8399;SDS011;4237;47.030;15.396;2023-03-31T07:47:44;10.57;;;4.30;;
8399;SDS011;4237;47.030;15.396;2023-03-31T07:50:14;7.07;;;4.40;;
8399;SDS011;4237;47.030;15.396;2023-03-31T07:52:42;7.43;;;4.67;;
8399;SDS011;4237;47.030;15.396;2023-03-31T07:55:12;7.23;;;4.10;;
8399;SDS011;4237;47.030;15.396;2023-03-31T07:57:40;9.60;;;4.57;;
8399;SDS011;4237;47.030;15.396;2023-03-31T08:00:10;7.57;;;4.00;;
8399;SDS011;4237;47.030;15.396;2023-03-31T08:02:39;8.57;;;4.17;;
8399;SDS011;4237;47.030;15.396;2023-03-31T08:05:10;6.80;;;4.60;;
8399;SDS011;4237;47.030;15.396;2023-03-31T08:07:39;8.90;;;4.50;;
8399;SDS011;4237;47.030;15.396;2023-03-31T08:10:09;9.77;;;4.03;;
8399;SDS011;4237;47.030;15.396;2023-03-31T08:12:38;10.37;;;4.53;;
8399;SDS011;4237;47.030;15.396;2023-03-31T08:15:07;8.37;;;4.10;;
8399;SDS011;4237;47.030;15.396;2023-03-31T08:17:35;7.53;;;4.60;;
8399;SDS011;4237;47.030;15.396;2023-03-31T08:20:04;5.37;;;4.40;;
8399;SDS011;4237;47.030;15.396;2023-03-31T08:22:36;9.57;;;4.40;;
8399;SDS011;4237;47.030;15.396;2023-03-31T08:25:05;9.43;;;4.40;;
8399;SDS011;4237;47.030;15.396;2023-03-31T08:27:37;8.20;;;3.30;;
8399;SDS011;4237;47.030;15.396;2023-03-31T08:30:07;4.87;;;3.30;;
8399;SDS011;4237;47.030;15.396;2023-03-31T08:32:36;6.83;;;3.60;;
8399;SDS011;4237;47.030;15.396;2023-03-31T08:35:05;10.17;;;3.70;;
8399;SDS011;4237;47.030;15.396;2023-03-31T08:37:33;5.93;;;3.57;;
8399;SDS011;4237;47.030;15.396;2023-03-31T08:40:03;7.10;;;3.47;;
8399;SDS011;4237;47.030;15.396;2023-03-31T08:42:34;4.80;;;3.30;;
8399;SDS011;4237;47.030;15.396;2023-03-31T08:45:04;5.23;;;3.07;;
8399;SDS011;4237;47.030;15.396;2023-03-31T08:47:33;5.93;;;2.63;;
8399;SDS011;4237;47.030;15.396;2023-03-31T08:50:10;3.73;;;2.83;;
8399;SDS011;4237;47.030;15.396;2023-03-31T08:52:36;3.97;;;2.80;;
8399;SDS011;4237;47.030;15.396;2023-03-31T08:55:06;5.50;;;2.70;;
8399;SDS011;4237;47.030;15.396;2023-03-31T08:57:37;4.43;;;2.73;;
8399;SDS011;4237;47.030;15.396;2023-03-31T09:00:04;6.83;;;2.40;;
8399;SDS011;4237;47.030;15.396;2023-03-31T09:08:01;2.17;;;1.40;;
8399;SDS011;4237;47.030;15.396;2023-03-31T09:10:50;3.40;;;1.70;;
8399;SDS011;4237;47.030;15.396;2023-03-31T09:17:58;8.70;;;2.60;;
8399;SDS011;4237;47.030;15.396;2023-03-31T09:20:28;2.57;;;2.03;;
8399;SDS011;4237;47.030;15.396;2023-03-31T09:22:59;5.40;;;2.03;;
8399;SDS011;4237;47.030;15.396;2023-03-31T09:25:28;2.87;;;2.30;;
8399;SDS011;4237;47.030;15.396;2023-03-31T09:27:57;5.28;;;2.10;;
8399;SDS011;4237;47.030;15.396;2023-03-31T09:30:26;6.72;;;1.98;;
8399;SDS011;4237;47.030;15.396;2023-03-31T09:33:11;6.05;;;1.87;;
8399;SDS011;4237;47.030;15.396;2023-03-31T09:35:40;3.55;;;1.80;;
8399;SDS011;4237;47.030;15.396;2023-03-31T09:38:14;3.30;;;2.00;;
8399;SDS011;4237;47.030;15.396;2023-03-31T09:40:38;5.50;;;1.70;;
8399;SDS011;4237;47.030;15.396;2023-03-31T09:43:15;4.37;;;1.90;;
8399;SDS011;4237;47.030;15.396;2023-03-31T09:45:36;2.60;;;1.60;;
8399;SDS011;4237;47.030;15.396;2023-03-31T09:48:10;2.17;;;1.50;;
8399;SDS011;4237;47.030;15.396;2023-03-31T09:50:41;4.87;;;1.80;;
8399;SDS011;4237;47.030;15.396;2023-03-31T09:53:10;4.85;;;1.75;;
8399;SDS011;4237;47.030;15.396;2023-03-31T09:55:46;5.85;;;2.05;;
8399;SDS011;4237;47.030;15.396;2023-03-31T09:58:14;4.42;;;2.30;;
8399;SDS011;4237;47.030;15.396;2023-03-31T10:00:43;4.00;;;3.20;;
8399;SDS011;4237;47.030;15.396;2023-03-31T10:03:12;3.08;;;1.42;;
8399;SDS011;4237;47.030;15.396;2023-03-31T10:05:48;5.87;;;2.60;;
8399;SDS011;4237;47.030;15.396;2023-03-31T10:08:25;2.75;;;1.67;;
8399;SDS011;4237;47.030;15.396;2023-03-31T10:13:28;3.67;;;1.62;;
8399;SDS011;4237;47.030;15.396;2023-03-31T10:16:01;2.55;;;1.85;;
8399;SDS011;4237;47.030;15.396;2023-03-31T10:18:36;5.27;;;1.80;;
8399;SDS011;4237;47.030;15.396;2023-03-31T10:21:01;17.93;;;2.17;;
8399;SDS011;4237;47.030;15.396;2023-03-31T10:23:30;7.80;;;1.50;;
8399;SDS011;4237;47.030;15.396;2023-03-31T10:26:00;1.90;;;1.43;;
8399;SDS011;4237;47.030;15.396;2023-03-31T10:28:33;1.60;;;1.50;;
8399;SDS011;4237;47.030;15.396;2023-03-31T10:31:02;2.23;;;1.67;;
8399;SDS011;4237;47.030;15.396;2023-03-31T10:33:31;1.60;;;1.23;;
8399;SDS011;4237;47.030;15.396;2023-03-31T10:36:02;1.87;;;1.40;;
8399;SDS011;4237;47.030;15.396;2023-03-31T10:38:33;4.43;;;1.30;;
8399;SDS011;4237;47.030;15.396;2023-03-31T10:41:00;1.80;;;1.43;;
8399;SDS011;4237;47.030;15.396;2023-03-31T10:43:29;3.37;;;1.83;;
8399;SDS011;4237;47.030;15.396;2023-03-31T10:45:58;5.10;;;1.57;;
8399;SDS011;4237;47.030;15.396;2023-03-31T10:48:28;1.97;;;1.50;;
8399;SDS011;4237;47.030;15.396;2023-03-31T10:51:03;4.00;;;1.60;;
8399;SDS011;4237;47.030;15.396;2023-03-31T10:53:30;2.30;;;1.70;;
8399;SDS011;4237;47.030;15.396;2023-03-31T11:01:28;1.90;;;1.50;;
8399;SDS011;4237;47.030;15.396;2023-03-31T11:04:03;2.57;;;1.30;;
8399;SDS011;4237;47.030;15.396;2023-03-31T11:06:47;3.67;;;1.50;;
8399;SDS011;4237;47.030;15.396;2023-03-31T11:17:21;3.93;;;1.20;;
8399;SDS011;4237;47.030;15.396;2023-03-31T11:22:24;1.83;;;1.30;;
8399;SDS011;4237;47.030;15.396;2023-03-31T11:32:41;1.30;;;1.20;;
8399;SDS011;4237;47.030;15.396;2023-03-31T11:45:27;1.10;;;1.00;;
8399;SDS011;4237;47.030;15.396;2023-03-31T11:47:53;1.37;;;0.88;;
8399;SDS011;4237;47.030;15.396;2023-03-31T11:50:27;1.95;;;1.12;;
8399;SDS011;4237;47.030;15.396;2023-03-31T11:55:24;3.83;;;1.70;;
8399;SDS011;4237;47.030;15.396;2023-03-31T12:00:35;4.23;;;1.57;;
8399;SDS011;4237;47.030;15.396;2023-03-31T12:05:47;3.07;;;1.80;;
8399;SDS011;4237;47.030;15.396;2023-03-31T12:08:16;2.53;;;1.60;;
8399;SDS011;4237;47.030;15.396;2023-03-31T12:10:51;2.87;;;1.40;;
8399;SDS011;4237;47.030;15.396;2023-03-31T12:21:22;1.67;;;1.27;;
8399;SDS011;4237;47.030;15.396;2023-03-31T12:23:52;2.12;;;1.25;;
8399;SDS011;4237;47.030;15.396;2023-03-31T12:28:52;2.58;;;1.32;;
8399;SDS011;4237;47.030;15.396;2023-03-31T12:31:21;7.42;;;1.17;;
8399;SDS011;4237;47.030;15.396;2023-03-31T12:33:56;1.70;;;1.20;;
8399;SDS011;4237;47.030;15.396;2023-03-31T12:46:45;2.03;;;1.60;;
8399;SDS011;4237;47.030;15.396;2023-03-31T12:59:36;1.40;;;0.93;;
8399;SDS011;4237;47.030;15.396;2023-03-31T13:04:37;1.37;;;1.20;;
8399;SDS011;4237;47.030;15.396;2023-03-31T13:07:51;2.43;;;1.30;;
8399;SDS011;4237;47.030;15.396;2023-03-31T13:09:39;2.30;;;1.10;;
8399;SDS011;4237;47.030;15.396;2023-03-31T13:12:16;1.60;;;1.00;;
8399;SDS011;4237;47.030;15.396;2023-03-31T13:14:46;2.30;;;1.10;;
8399;SDS011;4237;47.030;15.396;2023-03-31T13:17:38;3.20;;;1.27;;
8399;SDS011;4237;47.030;15.396;2023-03-31T13:20:16;2.43;;;1.60;;
8399;SDS011;4237;47.030;15.396;2023-03-31T13:22:44;1.10;;;1.00;;
8399;SDS011;4237;47.030;15.396;2023-03-31T13:28:42;3.07;;;1.00;;
8399;SDS011;4237;47.030;15.396;2023-03-31T13:33:12;2.40;;;1.23;;
8399;SDS011;4237;47.030;15.396;2023-03-31T13:35:42;4.77;;;1.13;;
8399;SDS011;4237;47.030;15.396;2023-03-31T13:41:08;4.93;;;1.10;;
8399;SDS011;4237;47.030;15.396;2023-03-31T13:43:39;3.70;;;1.33;;
8399;SDS011;4237;47.030;15.396;2023-03-31T13:46:15;2.47;;;1.07;;
8399;SDS011;4237;47.030;15.396;2023-03-31T13:57:13;2.80;;;1.10;;
8399;SDS011;4237;47.030;15.396;2023-03-31T13:59:52;1.23;;;1.10;;
8399;SDS011;4237;47.030;15.396;2023-03-31T14:05:16;2.27;;;1.07;;
8399;SDS011;4237;47.030;15.396;2023-03-31T14:07:41;3.03;;;1.30;;
8399;SDS011;4237;47.030;15.396;2023-03-31T14:18:14;2.20;;;1.30;;
8399;SDS011;4237;47.030;15.396;2023-03-31T14:21:29;1.20;;;1.10;;
8399;SDS011;4237;47.030;15.396;2023-03-31T14:23:21;1.73;;;1.10;;
8399;SDS011;4237;47.030;15.396;2023-03-31T14:31:09;3.97;;;1.40;;
8399;SDS011;4237;47.030;15.396;2023-03-31T14:33:41;1.70;;;1.20;;
8399;SDS011;4237;47.030;15.396;2023-03-31T14:36:12;5.00;;;1.40;;
8399;SDS011;4237;47.030;15.396;2023-03-31T14:38:38;3.03;;;1.30;;
8399;SDS011;4237;47.030;15.396;2023-03-31T14:41:12;5.20;;;1.80;;
8399;SDS011;4237;47.030;15.396;2023-03-31T14:43:38;2.70;;;1.53;;
8399;SDS011;4237;47.030;15.396;2023-03-31T14:46:10;1.80;;;1.50;;
8399;SDS011;4237;47.030;15.396;2023-03-31T14:48:42;3.90;;;1.87;;
8399;SDS011;4237;47.030;15.396;2023-03-31T14:51:13;3.17;;;1.63;;
8399;SDS011;4237;47.030;15.396;2023-03-31T14:53:42;2.47;;;1.30;;
8399;SDS011;4237;47.030;15.396;2023-03-31T14:56:15;3.23;;;1.20;;
8399;SDS011;4237;47.030;15.396;2023-03-31T14:58:44;3.50;;;1.43;;
8399;SDS011;4237;47.030;15.396;2023-03-31T15:01:16;1.33;;;1.00;;
8399;SDS011;4237;47.030;15.396;2023-03-31T15:03:45;2.50;;;1.40;;
8399;SDS011;4237;47.030;15.396;2023-03-31T15:06:14;8.20;;;1.80;;
8399;SDS011;4237;47.030;15.396;2023-03-31T15:08:42;2.50;;;1.40;;
8399;SDS011;4237;47.030;15.396;2023-03-31T15:11:13;3.53;;;1.30;;
8399;SDS011;4237;47.030;15.396;2023-03-31T15:13:42;2.07;;;1.53;;
8399;SDS011;4237;47.030;15.396;2023-03-31T15:16:26;2.03;;;1.50;;
8399;SDS011;4237;47.030;15.396;2023-03-31T15:18:47;3.53;;;1.60;;
8399;SDS011;4237;47.030;15.396;2023-03-31T15:21:20;1.93;;;1.40;;
8399;SDS011;4237;47.030;15.396;2023-03-31T15:23:45;3.80;;;1.47;;
8399;SDS011;4237;47.030;15.396;2023-03-31T15:26:13;3.97;;;1.77;;
8399;SDS011;4237;47.030;15.396;2023-03-31T15:28:51;1.87;;;1.53;;
8399;SDS011;4237;47.030;15.396;2023-03-31T15:31:20;2.13;;;1.40;;
8399;SDS011;4237;47.030;15.396;2023-03-31T15:33:48;2.07;;;1.50;;
8399;SDS011;4237;47.030;15.396;2023-03-31T15:36:17;3.33;;;1.60;;
8399;SDS011;4237;47.030;15.396;2023-03-31T15:38:53;3.47;;;1.60;;
8399;SDS011;4237;47.030;15.396;2023-03-31T15:41:17;2.97;;;1.83;;
8399;SDS011;4237;47.030;15.396;2023-03-31T15:43:47;2.00;;;1.27;;
8399;SDS011;4237;47.030;15.396;2023-03-31T15:46:23;2.77;;;1.70;;
8399;SDS011;4237;47.030;15.396;2023-03-31T15:48:52;3.77;;;1.60;;
8399;SDS011;4237;47.030;15.396;2023-03-31T15:51:24;13.37;;;4.20;;
8399;SDS011;4237;47.030;15.396;2023-03-31T15:53:53;5.00;;;3.27;;
8399;SDS011;4237;47.030;15.396;2023-03-31T15:59:01;2.30;;;1.90;;
8399;SDS011;4237;47.030;15.396;2023-03-31T16:01:37;3.97;;;2.47;;
8399;SDS011;4237;47.030;15.396;2023-03-31T16:04:07;2.90;;;2.23;;
8399;SDS011;4237;47.030;15.396;2023-03-31T16:09:06;23.13;;;13.67;;
8399;SDS011;4237;47.030;15.396;2023-03-31T16:14:21;1.50;;;1.40;;
8399;SDS011;4237;47.030;15.396;2023-03-31T16:16:55;1.63;;;1.30;;
8399;SDS011;4237;47.030;15.396;2023-03-31T16:19:19;1.53;;;1.30;;
8399;SDS011;4237;47.030;15.396;2023-03-31T16:21:49;2.53;;;1.60;;
8399;SDS011;4237;47.030;15.396;2023-03-31T16:24:19;1.73;;;1.37;;
8399;SDS011;4237;47.030;15.396;2023-03-31T16:26:48;3.37;;;1.50;;
8399;SDS011;4237;47.030;15.396;2023-03-31T16:29:20;4.37;;;1.67;;
8399;SDS011;4237;47.030;15.396;2023-03-31T16:31:48;2.93;;;1.50;;
8399;SDS011;4237;47.030;15.396;2023-03-31T16:34:17;2.40;;;1.50;;
8399;SDS011;4237;47.030;15.396;2023-03-31T16:36:45;2.17;;;1.50;;
8399;SDS011;4237;47.030;15.396;2023-03-31T16:39:13;2.53;;;1.70;;
8399;SDS011;4237;47.030;15.396;2023-03-31T16:41:42;2.23;;;1.60;;
8399;SDS011;4237;47.030;15.396;2023-03-31T16:44:10;3.60;;;1.60;;
8399;SDS011;4237;47.030;15.396;2023-03-31T16:46:38;2.73;;;1.63;;
8399;SDS011;4237;47.030;15.396;2023-03-31T16:49:07;2.17;;;1.63;;
8399;SDS011;4237;47.030;15.396;2023-03-31T16:51:35;2.83;;;1.67;;
8399;SDS011;4237;47.030;15.396;2023-03-31T16:54:05;1.97;;;1.67;;
8399;SDS011;4237;47.030;15.396;2023-03-31T16:56:34;4.00;;;1.63;;
8399;SDS011;4237;47.030;15.396;2023-03-31T16:59:03;2.10;;;1.57;;
8399;SDS011;4237;47.030;15.396;2023-03-31T17:01:33;4.30;;;3.03;;
8399;SDS011;4237;47.030;15.396;2023-03-31T17:04:01;4.57;;;2.10;;
8399;SDS011;4237;47.030;15.396;2023-03-31T17:06:29;5.93;;;1.60;;
8399;SDS011;4237;47.030;15.396;2023-03-31T17:08:58;6.07;;;1.20;;
8399;SDS011;4237;47.030;15.396;2023-03-31T17:11:27;3.23;;;0.67;;
8399;SDS011;4237;47.030;15.396;2023-03-31T17:13:56;6.17;;;1.20;;
8399;SDS011;4237;47.030;15.396;2023-03-31T17:16:26;1.77;;;0.60;;
8399;SDS011;4237;47.030;15.396;2023-03-31T17:18:55;0.87;;;0.70;;
8399;SDS011;4237;47.030;15.396;2023-03-31T17:21:23;1.13;;;0.50;;
8399;SDS011;4237;47.030;15.396;2023-03-31T17:23:52;0.87;;;0.77;;
8399;SDS011;4237;47.030;15.396;2023-03-31T17:26:22;1.80;;;0.53;;
8399;SDS011;4237;47.030;15.396;2023-03-31T17:28:50;3.50;;;0.60;;
8399;SDS011;4237;47.030;15.396;2023-03-31T17:31:19;2.43;;;0.60;;
8399;SDS011;4237;47.030;15.396;2023-03-31T17:33:48;0.40;;;0.20;;
8399;SDS011;4237;47.030;15.396;2023-03-31T17:36:18;3.03;;;1.03;;
8399;SDS011;4237;47.030;15.396;2023-03-31T17:38:48;3.13;;;1.07;;
8399;SDS011;4237;47.030;15.396;2023-03-31T17:41:17;1.07;;;0.60;;
8399;SDS011;4237;47.030;15.396;2023-03-31T17:43:47;0.80;;;0.60;;
8399;SDS011;4237;47.030;15.396;2023-03-31T17:46:17;3.50;;;1.20;;
8399;SDS011;4237;47.030;15.396;2023-03-31T17:48:46;2.97;;;1.47;;
8399;SDS011;4237;47.030;15.396;2023-03-31T17:51:15;3.37;;;1.43;;
8399;SDS011;4237;47.030;15.396;2023-03-31T17:53:46;1.33;;;1.10;;
8399;SDS011;4237;47.030;15.396;2023-03-31T17:56:33;1.47;;;0.90;;
8399;SDS011;4237;47.030;15.396;2023-03-31T17:59:01;1.20;;;1.10;;
8399;SDS011;4237;47.030;15.396;2023-03-31T18:01:31;5.83;;;1.23;;